Time;durP1;ratioP1;P1;durP2;ratioP2;P2;SDS_P1;SDS_P2;PMS_P1;PMS_P2;Temp;Humidity;BMP_temperature;BMP_pressure;BME280_temperature;BME280_humidity;BME280_pressure;Samples;Min_cycle;Max_cycle;Signal;HPM_P1;HPM_P2
2021/10/10 00:01:29;;;;;;;;;54.50;44.00;;;;;13.94;60.85;102318.91;6215307;22;45394;-83
2021/10/10 00:03:54;;;;;;;;;55.25;43.25;;;;;13.87;61.10;102313.56;6217336;22;45378;-83
2021/10/10 00:06:20;;;;;;;;;50.25;40.50;;;;;13.86;61.25;102313.56;6215301;22;45237;-83
2021/10/10 00:08:45;;;;;;;;;51.75;41.75;;;;;13.79;61.21;102301.13;6215546;22;45294;-83
2021/10/10 00:11:10;;;;;;;;;50.75;40.00;;;;;13.71;60.77;102292.25;6215193;22;45252;-83
2021/10/10 00:13:36;;;;;;;;;42.00;36.75;;;;;13.70;61.40;102296.66;6214903;22;47077;-83
2021/10/10 00:16:01;;;;;;;;;50.00;40.25;;;;;13.83;61.56;102319.72;6214861;22;45483;-84
2021/10/10 00:18:27;;;;;;;;;52.25;40.75;;;;;13.75;61.72;102312.59;6215159;22;45195;-83
2021/10/10 00:20:53;;;;;;;;;54.25;43.75;;;;;13.78;62.01;102317.91;6214710;22;45392;-83
2021/10/10 00:23:19;;;;;;;;;56.00;42.75;;;;;13.61;61.87;102292.19;6214241;22;47484;-84
2021/10/10 00:25:45;;;;;;;;;53.75;40.75;;;;;13.74;61.75;102313.44;6214923;22;45514;-83
2021/10/10 00:28:10;;;;;;;;;52.00;41.50;;;;;13.61;62.01;102305.41;6217015;22;45422;-83
2021/10/10 00:30:36;;;;;;;;;55.50;43.75;;;;;13.59;61.93;102301.84;6217118;22;45374;-83
2021/10/10 00:33:01;;;;;;;;;49.75;38.50;;;;;13.68;62.26;102320.47;6214628;22;47079;-83
2021/10/10 00:35:27;;;;;;;;;49.25;40.25;;;;;13.60;61.78;102302.75;6217233;22;45239;-84
2021/10/10 00:37:53;;;;;;;;;55.50;44.25;;;;;13.62;62.48;102316.88;6215538;22;45355;-83
2021/10/10 00:40:18;;;;;;;;;52.75;41.75;;;;;13.45;62.20;102285.84;6217186;22;45367;-83
2021/10/10 00:42:44;;;;;;;;;51.50;42.75;;;;;13.51;62.52;102292.97;6214522;22;48072;-83
2021/10/10 00:45:10;;;;;;;;;49.50;39.75;;;;;13.63;62.84;102316.91;6217202;22;45341;-83
2021/10/10 00:47:37;;;;;;;;;49.00;40.50;;;;;13.58;62.44;102313.31;6215141;22;45240;-84
2021/10/10 00:50:11;;;;;;;;;51.00;40.00;;;;;13.57;62.49;102310.66;6216838;22;45338;-83
2021/10/10 00:52:40;;;;;;;;;51.75;41.75;;;;;13.54;62.61;102302.69;6217054;22;45967;-84
2021/10/10 00:55:06;;;;;;;;;51.00;40.75;;;;;13.59;62.74;102315.09;6216676;22;45275;-84
2021/10/10 00:57:32;;;;;;;;;56.50;43.75;;;;;13.57;62.35;102308.88;6214593;22;45311;-84
2021/10/10 00:59:59;;;;;;;;;51.50;40.00;;;;;13.57;62.36;102308.00;6215067;22;45478;-83
2021/10/10 01:02:25;;;;;;;;;50.75;41.00;;;;;13.59;62.77;102322.16;6214658;22;47232;-84
2021/10/10 01:04:50;;;;;;;;;50.25;41.00;;;;;13.56;62.56;102311.53;6214716;22;45186;-83
2021/10/10 01:07:19;;;;;;;;;46.50;38.25;;;;;13.48;62.56;102298.22;6217136;22;45228;-83
2021/10/10 01:09:45;;;;;;;;;53.00;42.00;;;;;13.54;62.68;102308.88;6216619;22;45396;-84
2021/10/10 01:12:11;;;;;;;;;52.75;41.75;;;;;13.48;62.74;102298.22;6214389;22;48091;-83
2021/10/10 01:14:36;;;;;;;;;54.75;44.75;;;;;13.53;62.61;102307.09;6214939;22;45269;-83
2021/10/10 01:17:03;;;;;;;;;55.00;43.25;;;;;13.56;62.82;102311.53;6215003;22;45273;-83
2021/10/10 01:19:33;;;;;;;;;55.00;43.75;;;;;13.43;63.17;102297.31;6214470;22;45310;-83
2021/10/10 01:21:59;;;;;;;;;53.50;45.00;;;;;13.54;62.52;102314.16;6214648;22;46450;-83
2021/10/10 01:24:26;;;;;;;;;53.00;41.75;;;;;13.46;62.76;102294.69;6216508;22;45442;-83
2021/10/10 01:26:51;;;;;;;;;49.25;40.75;;;;;13.40;62.81;102289.34;6216130;22;45315;-83
2021/10/10 01:29:17;;;;;;;;;48.00;39.00;;;;;13.37;62.52;102278.72;6214519;22;45274;-84
2021/10/10 01:31:42;;;;;;;;;48.25;40.25;;;;;13.47;62.69;102293.78;6215928;22;48306;-83
2021/10/10 01:34:08;;;;;;;;;45.75;40.25;;;;;13.51;62.79;102297.38;6218561;22;45292;-83
2021/10/10 01:36:36;;;;;;;;;46.75;41.00;;;;;13.34;62.91;102270.75;6216223;22;45265;-83
2021/10/10 01:39:03;;;;;;;;;53.00;43.25;;;;;13.54;62.73;102308.88;6218105;22;45253;-83
2021/10/10 01:41:29;;;;;;;;;47.25;40.25;;;;;13.44;62.66;102289.41;6217665;22;45216;-84
2021/10/10 01:43:54;;;;;;;;;53.50;40.25;;;;;13.52;62.81;102312.38;6215628;22;45175;-83
2021/10/10 01:46:20;;;;;;;;;52.75;43.75;;;;;13.38;62.82;102291.97;6218621;22;45441;-83
2021/10/10 01:48:45;;;;;;;;;50.00;40.00;;;;;13.48;63.05;102308.81;6218141;22;45307;-84
2021/10/10 01:51:12;;;;;;;;;54.25;41.75;;;;;13.32;62.84;102278.69;6217813;22;46206;-83
2021/10/10 01:53:39;;;;;;;;;51.00;38.00;;;;;13.39;63.21;102290.19;6215778;22;45371;-84
2021/10/10 01:56:04;;;;;;;;;36.50;34.00;;;;;13.30;63.30;102275.13;6216142;22;45316;-83
2021/10/10 01:58:30;;;;;;;;;55.00;44.00;;;;;13.36;62.94;102292.81;6215409;22;45396;-84
2021/10/10 02:00:57;;;;;;;;;50.25;40.25;;;;;13.24;63.09;102273.28;6216237;22;47203;-83
2021/10/10 02:03:23;;;;;;;;;50.75;42.75;;;;;13.27;63.22;102268.94;6217764;22;45194;-83
2021/10/10 02:05:50;;;;;;;;;54.25;43.25;;;;;13.22;62.98;102269.72;6216010;22;45170;-83
2021/10/10 02:08:16;;;;;;;;;55.00;43.75;;;;;13.33;62.92;102291.03;6218118;22;45430;-84
2021/10/10 02:10:41;;;;;;;;;54.00;41.75;;;;;13.29;63.10;102285.72;6215954;22;47080;-83
2021/10/10 02:13:07;;;;;;;;;47.75;39.50;;;;;13.14;63.02;102259.94;6215801;22;45304;-83
2021/10/10 02:15:33;;;;;;;;;54.50;40.75;;;;;13.27;63.12;102274.22;6216296;22;45395;-83
2021/10/10 02:17:58;;;;;;;;;53.25;42.75;;;;;13.31;63.34;102289.22;6217944;22;45418;-84
2021/10/10 02:20:24;;;;;;;;;46.25;40.50;;;;;13.23;63.60;102286.47;6217908;22;45690;-84
2021/10/10 02:22:49;;;;;;;;;48.00;39.50;;;;;13.13;63.07;102282.88;6215210;22;45399;-83
2021/10/10 02:25:14;;;;;;;;;56.50;42.75;;;;;13.08;63.65;102288.97;6216124;22;45506;-83
2021/10/10 02:27:40;;;;;;;;;51.75;42.00;;;;;13.02;63.76;102281.88;6217663;22;45514;-82
2021/10/10 02:30:06;;;;;;;;;52.00;43.50;;;;;13.05;63.61;102307.47;6218036;22;45961;-84
2021/10/10 02:32:31;;;;;;;;;51.00;41.00;;;;;12.96;63.92;102285.34;6216142;22;45177;-84
2021/10/10 02:34:57;;;;;;;;;52.50;42.25;;;;;12.94;63.86;102291.47;6218216;22;45166;-83
2021/10/10 02:37:22;;;;;;;;;50.25;41.75;;;;;12.86;63.66;102288.75;6215916;22;45608;-83
2021/10/10 02:39:47;;;;;;;;;56.00;41.25;;;;;12.93;63.97;102297.63;6215669;22;46914;-83
2021/10/10 02:42:13;;;;;;;;;51.25;42.00;;;;;12.92;64.18;102303.78;6215120;22;45285;-83
2021/10/10 02:44:39;;;;;;;;;49.00;41.75;;;;;12.90;63.77;102303.75;6217986;22;45247;-82
2021/10/10 02:47:04;;;;;;;;;51.75;42.00;;;;;12.79;63.57;102285.13;6217788;22;45387;-83
2021/10/10 02:49:30;;;;;;;;;55.25;44.75;;;;;12.86;63.66;102298.44;6215418;22;45985;-83
2021/10/10 02:51:55;;;;;;;;;52.00;42.00;;;;;12.72;64.12;102279.75;6215461;22;45411;-83
2021/10/10 02:54:21;;;;;;;;;49.00;41.75;;;;;12.84;63.86;102297.53;6215599;22;45276;-83
2021/10/10 02:56:46;;;;;;;;;52.75;42.00;;;;;12.67;63.88;102274.41;6217058;22;45271;-83
2021/10/10 02:59:11;;;;;;;;;51.25;41.75;;;;;12.76;63.70;102300.94;6215473;22;47856;-83
2021/10/10 03:01:37;;;;;;;;;50.50;40.00;;;;;12.59;63.92;102273.44;6217496;22;45332;-83
2021/10/10 03:04:02;;;;;;;;;55.75;44.00;;;;;12.55;63.91;102267.22;6217675;22;45521;-83
2021/10/10 03:06:28;;;;;;;;;52.50;43.25;;;;;12.52;63.82;102275.09;6215718;22;45281;-83
2021/10/10 03:08:53;;;;;;;;;49.50;39.25;;;;;12.50;63.63;102276.81;6215687;22;46926;-82
2021/10/10 03:11:19;;;;;;;;;52.00;43.00;;;;;12.63;63.63;102308.69;6214930;22;45271;-83
2021/10/10 03:14:32;;;;;;;;;45.50;39.75;;;;;12.58;64.09;102309.50;6215774;22;45237;-82
2021/10/10 03:16:56;;;;;;;;;52.75;42.50;;;;;12.36;64.21;102278.41;6217009;22;45523;-82
2021/10/10 03:19:22;;;;;;;;;54.00;41.75;;;;;12.46;64.23;102297.91;6217154;22;45390;-83
2021/10/10 03:21:47;;;;;;;;;51.75;41.25;;;;;12.43;64.08;102293.47;6217585;22;45343;-82
2021/10/10 03:24:13;;;;;;;;;53.25;43.00;;;;;12.33;64.54;102286.28;6215139;22;45317;-83
2021/10/10 03:26:38;;;;;;;;;53.00;40.75;;;;;12.30;64.25;102284.50;6215640;22;45597;-83
2021/10/10 03:29:04;;;;;;;;;46.50;39.75;;;;;12.36;64.47;102292.50;6216022;22;47078;-83
2021/10/10 03:31:29;;;;;;;;;52.00;42.25;;;;;12.21;64.24;102268.50;6217797;22;45299;-82
2021/10/10 03:33:55;;;;;;;;;52.75;41.00;;;;;12.21;64.18;102279.06;6215711;22;45175;-83
2021/10/10 03:36:20;;;;;;;;;55.50;42.50;;;;;12.24;64.33;102280.88;6215275;22;45322;-83
2021/10/10 03:38:46;;;;;;;;;53.75;44.00;;;;;12.26;64.33;102287.06;6215901;22;47173;-83
2021/10/10 03:41:12;;;;;;;;;49.75;38.50;;;;;12.22;64.20;102285.25;6217901;22;45274;-83
2021/10/10 03:43:38;;;;;;;;;54.00;43.25;;;;;12.09;64.54;102266.59;6215668;22;45095;-83
2021/10/10 03:46:04;;;;;;;;;50.50;40.00;;;;;12.27;64.51;102302.03;6217601;22;45462;-82
2021/10/10 03:48:29;;;;;;;;;49.75;41.25;;;;;12.24;64.37;102294.97;6217566;22;45441;-83
2021/10/10 03:50:55;;;;;;;;;50.50;39.25;;;;;12.04;64.41;102268.28;6218183;22;45165;-82
2021/10/10 03:53:24;;;;;;;;;49.75;39.50;;;;;12.15;64.61;102292.19;6217549;22;45300;-83
2021/10/10 03:55:53;;;;;;;;;45.50;40.50;;;;;12.14;64.62;102291.31;6241121;22;45320;-83
2021/10/10 03:58:18;;;;;;;;;51.50;41.25;;;;;12.02;64.38;102280.56;6214809;22;47045;-82
2021/10/10 04:00:44;;;;;;;;;50.25;38.00;;;;;12.06;64.68;102286.78;6217223;22;45110;-82
2021/10/10 04:03:11;;;;;;;;;45.75;37.75;;;;;12.00;64.98;102277.03;6217908;22;45182;-82
2021/10/10 04:05:40;;;;;;;;;49.00;40.25;;;;;12.03;64.83;102294.63;6215656;22;45452;-83
2021/10/10 04:08:06;;;;;;;;;44.75;37.50;;;;;12.00;64.54;102287.59;6214674;22;48105;-82
2021/10/10 04:10:32;;;;;;;;;54.25;41.50;;;;;11.99;64.91;102284.91;6217161;22;45161;-83
2021/10/10 04:12:57;;;;;;;;;46.25;38.00;;;;;12.01;64.83;102301.66;6216815;22;45405;-83
2021/10/10 04:15:23;;;;;;;;;48.50;41.00;;;;;11.90;65.05;102291.81;6218919;22;45238;-82
2021/10/10 04:17:49;;;;;;;;;46.00;37.50;;;;;11.89;64.91;102289.16;6215791;22;46954;-83
2021/10/10 04:20:16;;;;;;;;;51.75;41.50;;;;;11.93;64.83;102300.66;6215414;22;45668;-83
2021/10/10 04:22:43;;;;;;;;;58.00;44.00;;;;;11.79;65.25;102281.94;6214862;22;45419;-82
2021/10/10 04:25:10;;;;;;;;;44.25;38.00;;;;;11.73;65.34;102281.81;6215137;22;45465;-83
2021/10/10 04:27:37;;;;;;;;;53.00;43.00;;;;;11.85;65.24;102304.03;6214790;22;47160;-82
2021/10/10 04:30:05;;;;;;;;;50.75;42.50;;;;;11.82;65.46;102300.47;6215446;22;45143;-82
2021/10/10 04:32:30;;;;;;;;;51.75;40.75;;;;;11.78;65.25;102288.06;6217197;22;45314;-82
2021/10/10 04:34:56;;;;;;;;;50.25;39.00;;;;;11.84;64.98;102304.91;6215237;22;45527;-83
2021/10/10 04:37:21;;;;;;;;;47.25;37.50;;;;;11.82;65.30;102298.69;6217045;22;45302;-82
2021/10/10 04:39:47;;;;;;;;;52.00;42.75;;;;;11.75;65.09;102296.81;6215704;22;44684;-82
2021/10/10 04:42:12;;;;;;;;;55.75;44.00;;;;;11.69;65.16;102289.69;6215035;22;45303;-82
2021/10/10 04:44:38;;;;;;;;;51.25;42.25;;;;;11.74;65.49;102305.59;6217249;22;45377;-83
2021/10/10 04:47:04;;;;;;;;;40.25;34.00;;;;;11.80;65.60;102320.66;6216624;22;46038;-83
2021/10/10 04:49:31;;;;;;;;;49.25;40.75;;;;;11.66;65.43;102294.03;6215165;22;46012;-83
2021/10/10 04:51:59;;;;;;;;;51.50;41.00;;;;;11.75;65.55;102311.75;6215470;22;45187;-82
2021/10/10 04:54:27;;;;;;;;;56.50;45.00;;;;;11.76;65.66;102319.72;6217226;22;45213;-82
2021/10/10 04:56:52;;;;;;;;;53.75;43.25;;;;;11.63;65.60;102288.72;6214289;22;45991;-83
2021/10/10 04:59:18;;;;;;;;;53.25;41.25;;;;;11.79;65.76;102308.31;6215068;22;45463;-82
2021/10/10 05:01:43;;;;;;;;;51.75;40.00;;;;;11.60;65.49;102278.09;6214819;22;45624;-83
2021/10/10 05:04:08;;;;;;;;;52.75;42.50;;;;;11.63;65.28;102286.06;6216829;22;45497;-83
2021/10/10 05:06:34;;;;;;;;;52.50;43.50;;;;;11.57;65.45;102276.28;6215802;22;46193;-83
2021/10/10 05:08:59;;;;;;;;;49.50;41.25;;;;;11.64;65.38;102294.00;6218712;22;45260;-82
2021/10/10 05:11:25;;;;;;;;;51.25;41.00;;;;;11.62;65.37;102290.44;6218078;22;45367;-82
2021/10/10 05:13:50;;;;;;;;;54.25;42.50;;;;;11.63;65.51;102292.22;6218142;22;45177;-83
2021/10/10 05:16:16;;;;;;;;;51.00;38.50;;;;;11.59;65.50;102295.66;6215969;22;45981;-82
2021/10/10 05:18:41;;;;;;;;;51.25;41.75;;;;;11.58;65.62;102300.94;6216101;22;45138;-82
2021/10/10 05:21:07;;;;;;;;;53.00;43.00;;;;;11.52;65.72;102279.69;6218202;22;45245;-82
2021/10/10 05:23:32;;;;;;;;;52.00;44.00;;;;;11.56;65.77;102297.38;6217668;22;45221;-83
2021/10/10 05:25:58;;;;;;;;;54.75;43.50;;;;;11.64;65.84;102312.47;6215936;22;46161;-82
2021/10/10 05:28:24;;;;;;;;;53.25;41.75;;;;;11.65;65.64;102318.63;6218049;22;45167;-83
2021/10/10 05:30:51;;;;;;;;;54.25;38.50;;;;;11.64;65.72;102314.22;6216093;22;45130;-82
2021/10/10 05:33:20;;;;;;;;;52.00;42.00;;;;;11.69;65.63;102326.63;6218343;22;45428;-83
2021/10/10 05:35:46;;;;;;;;;47.50;40.00;;;;;11.61;65.51;102309.78;6215754;22;46327;-82
2021/10/10 05:38:12;;;;;;;;;52.50;42.75;;;;;11.61;65.75;102312.41;6217713;22;45216;-82
2021/10/10 05:40:37;;;;;;;;;54.00;45.25;;;;;11.56;65.57;102319.34;6215914;22;45238;-83
2021/10/10 05:43:03;;;;;;;;;52.50;42.50;;;;;11.50;65.74;102305.19;6217741;22;45230;-83
2021/10/10 05:45:29;;;;;;;;;53.25;43.25;;;;;11.62;65.87;102326.47;6217533;22;45330;-83
2021/10/10 05:47:54;;;;;;;;;57.75;42.25;;;;;11.66;65.82;102333.59;6215874;22;45269;-83
2021/10/10 05:50:20;;;;;;;;;52.75;41.75;;;;;11.51;65.96;102310.47;6217920;22;45236;-83
2021/10/10 05:52:45;;;;;;;;;52.00;43.00;;;;;11.60;65.54;102334.38;6217984;22;45391;-83
2021/10/10 05:55:14;;;;;;;;;53.50;43.00;;;;;11.47;65.66;102309.53;6240593;22;48117;-83
2021/10/10 05:57:44;;;;;;;;;52.50;44.00;;;;;11.48;65.79;102316.56;6217168;22;45271;-83
2021/10/10 06:00:12;;;;;;;;;49.25;41.00;;;;;11.45;65.61;102313.00;6215764;22;45240;-83
2021/10/10 06:02:37;;;;;;;;;57.00;44.00;;;;;11.62;65.81;102344.94;6215936;22;45484;-82
2021/10/10 06:05:03;;;;;;;;;53.75;43.25;;;;;11.61;65.95;102348.47;6218036;22;45252;-83
2021/10/10 06:07:28;;;;;;;;;53.75;41.75;;;;;11.54;66.00;102325.47;6216102;22;45343;-82
2021/10/10 06:09:54;;;;;;;;;51.50;42.50;;;;;11.54;66.03;102336.00;6215825;22;45318;-83
2021/10/10 06:12:20;;;;;;;;;53.75;41.75;;;;;11.59;66.40;102339.63;6217765;22;45266;-82
2021/10/10 06:14:50;;;;;;;;;55.75;41.75;;;;;11.59;66.18;102348.41;6215718;22;46944;-82
2021/10/10 06:17:17;;;;;;;;;53.25;43.00;;;;;11.63;66.23;102352.03;6215165;22;45400;-83
2021/10/10 06:19:44;;;;;;;;;50.00;41.25;;;;;11.62;66.16;102348.47;6215768;22;45291;-82
2021/10/10 06:22:09;;;;;;;;;50.00;40.00;;;;;11.49;65.77;102330.66;6215526;22;45466;-81
2021/10/10 06:24:35;;;;;;;;;53.00;43.25;;;;;11.63;66.10;102366.09;6215051;22;47024;-83
2021/10/10 06:27:01;;;;;;;;;56.25;44.50;;;;;11.64;65.98;102359.94;6215066;22;45373;-83
2021/10/10 06:29:27;;;;;;;;;51.75;40.50;;;;;11.46;66.15;102328.84;6216080;22;45197;-83
2021/10/10 06:31:52;;;;;;;;;52.75;43.75;;;;;11.46;66.03;102331.47;6215576;22;45254;-82
2021/10/10 06:34:18;;;;;;;;;51.50;42.25;;;;;11.44;65.91;102341.13;6215321;22;47077;-82
2021/10/10 06:36:43;;;;;;;;;53.50;41.75;;;;;11.48;65.83;102345.59;6215667;22;45296;-82
2021/10/10 06:39:08;;;;;;;;;54.00;42.00;;;;;11.50;66.22;102355.31;6217415;22;45370;-82
2021/10/10 06:41:34;;;;;;;;;47.25;40.25;;;;;11.56;65.68;102371.22;6215217;22;45346;-82
2021/10/10 06:43:59;;;;;;;;;51.00;40.00;;;;;11.50;65.65;102360.56;6215284;22;46913;-82
2021/10/10 06:46:25;;;;;;;;;48.50;41.25;;;;;11.55;65.64;102375.63;6215174;22;45190;-82
2021/10/10 06:48:51;;;;;;;;;53.75;44.00;;;;;11.42;65.88;102347.25;6215782;22;45335;-84
2021/10/10 06:51:16;;;;;;;;;53.00;43.50;;;;;11.45;65.77;102355.19;6215352;22;45264;-84
2021/10/10 06:53:41;;;;;;;;;52.25;42.00;;;;;11.56;65.68;102374.75;6215288;22;47128;-84
2021/10/10 06:56:07;;;;;;;;;56.00;44.00;;;;;11.55;65.84;102378.25;6215329;22;45561;-84
2021/10/10 06:58:33;;;;;;;;;51.50;41.00;;;;;11.42;65.50;102353.41;6215371;22;45346;-83
2021/10/10 07:00:59;;;;;;;;;51.50;42.25;;;;;11.51;65.38;102364.97;6217520;22;45382;-84
2021/10/10 07:03:24;;;;;;;;;50.75;40.75;;;;;11.53;65.64;102365.91;6217578;22;45372;-84
2021/10/10 07:05:50;;;;;;;;;56.50;42.50;;;;;11.43;65.55;102341.09;6217798;22;45352;-84
2021/10/10 07:08:15;;;;;;;;;48.50;37.75;;;;;11.63;65.60;102368.72;6216425;22;45170;-83
2021/10/10 07:10:41;;;;;;;;;56.00;42.50;;;;;11.60;65.60;102358.13;6215620;22;45983;-84
2021/10/10 07:13:06;;;;;;;;;57.75;43.75;;;;;11.50;65.38;102329.81;6216994;22;46424;-84
2021/10/10 07:15:33;;;;;;;;;50.00;41.00;;;;;11.64;65.55;102361.69;6215724;22;45928;-84
2021/10/10 07:18:01;;;;;;;;;52.25;41.50;;;;;11.61;65.57;102362.53;6217640;22;45264;-84
2021/10/10 07:23:14;;;;;;;;;58.50;44.50;;;;;11.62;65.46;102372.22;6216514;22;45690;-84
2021/10/10 07:25:40;;;;;;;;;51.75;41.50;;;;;11.66;65.52;102374.06;6215167;22;45323;-84
2021/10/10 07:28:05;;;;;;;;;51.75;41.50;;;;;11.63;65.59;102365.22;6217116;22;45283;-84
2021/10/10 07:30:31;;;;;;;;;54.25;42.75;;;;;11.67;65.46;102378.47;6220530;22;45102;-84
2021/10/10 07:32:56;;;;;;;;;53.00;41.25;;;;;11.66;65.84;102367.91;6217578;22;45781;-84
2021/10/10 07:35:21;;;;;;;;;55.75;43.50;;;;;11.63;65.42;102349.38;6218131;22;45391;-85
2021/10/10 07:37:47;;;;;;;;;54.75;41.50;;;;;11.72;65.74;102368.00;6218168;22;45189;-84
2021/10/10 07:40:12;;;;;;;;;54.75;44.00;;;;;11.70;65.04;102360.03;6231605;22;45868;-82
2021/10/10 07:42:38;;;;;;;;;54.00;43.00;;;;;11.81;65.73;102373.44;6230093;22;46974;-83
2021/10/10 07:45:10;;;;;;;;;55.75;44.75;;;;;11.88;65.45;102375.34;6233363;22;45186;-81
2021/10/10 07:50:09;;;;;;;;;52.75;43.75;;;;;11.95;65.44;102389.56;6222832;22;45390;-83
2021/10/10 07:52:37;;;;;;;;;54.25;44.75;;;;;12.03;65.59;102389.66;6219139;22;46165;-84
2021/10/10 07:55:04;;;;;;;;;57.00;44.75;;;;;11.98;65.52;102389.59;6217674;22;45266;-84
2021/10/10 07:57:30;;;;;;;;;52.25;44.00;;;;;11.99;65.56;102377.28;6216925;22;45261;-83
2021/10/10 07:59:55;;;;;;;;;55.00;45.00;;;;;12.19;65.63;102410.19;6217454;22;45102;-83
2021/10/10 08:02:21;;;;;;;;;58.50;45.75;;;;;12.26;65.64;102408.53;6216849;22;45423;-84
2021/10/10 08:04:46;;;;;;;;;54.50;42.25;;;;;12.28;65.67;102397.13;6216966;22;45247;-84
2021/10/10 08:07:11;;;;;;;;;55.75;42.50;;;;;12.36;65.47;102402.53;6215269;22;45270;-84
2021/10/10 08:09:37;;;;;;;;;56.50;45.00;;;;;12.42;65.43;102405.25;6214740;22;45338;-83
2021/10/10 08:12:03;;;;;;;;;52.50;41.25;;;;;12.49;65.48;102390.41;6214633;22;48016;-84
2021/10/10 08:14:28;;;;;;;;;55.75;45.00;;;;;12.49;65.30;102390.41;6217220;22;45209;-84
2021/10/10 08:16:54;;;;;;;;;51.00;40.00;;;;;12.53;64.96;102397.50;6215256;22;45481;-84
2021/10/10 08:19:19;;;;;;;;;56.50;44.00;;;;;12.60;65.05;102404.66;6214845;22;46404;-84
2021/10/10 08:21:45;;;;;;;;;56.00;44.75;;;;;12.72;64.70;102398.66;6215395;22;47119;-84
2021/10/10 08:24:11;;;;;;;;;59.75;43.75;;;;;12.84;64.90;102408.53;6217261;22;45375;-84
2021/10/10 08:26:37;;;;;;;;;59.50;46.75;;;;;12.97;65.04;102421.94;6214743;22;45409;-84
2021/10/10 08:29:02;;;;;;;;;59.50;46.25;;;;;12.93;64.38;102398.94;6217080;22;45090;-85
2021/10/10 08:31:29;;;;;;;;;55.25;44.75;;;;;13.06;64.65;102397.34;6215430;22;46983;-84
2021/10/10 08:33:54;;;;;;;;;57.25;44.25;;;;;13.19;63.94;102398.41;6215525;22;45076;-83
2021/10/10 08:36:20;;;;;;;;;55.50;44.00;;;;;13.33;63.90;102396.81;6214737;22;45193;-84
2021/10/10 08:38:45;;;;;;;;;60.50;46.75;;;;;13.37;63.86;102388.06;6216868;22;45467;-84
2021/10/10 08:41:14;;;;;;;;;58.75;46.25;;;;;13.48;64.08;102390.84;6214281;22;47161;-83
2021/10/10 08:43:44;;;;;;;;;54.75;45.25;;;;;13.48;63.72;102374.09;6217126;22;45398;-84
2021/10/10 08:46:13;;;;;;;;;58.50;46.50;;;;;13.57;63.65;102369.75;6215347;22;45211;-84
2021/10/10 08:48:41;;;;;;;;;60.50;46.50;;;;;13.77;63.42;102382.31;6215380;22;45300;-83
2021/10/10 08:51:07;;;;;;;;;54.50;43.75;;;;;13.80;63.03;102385.00;6216821;22;46623;-83
2021/10/10 08:53:32;;;;;;;;;56.25;45.50;;;;;13.90;62.99;102395.69;6216558;22;45553;-84
2021/10/10 08:55:58;;;;;;;;;49.25;36.25;;;;;13.89;62.54;102398.28;6222098;22;45168;-83
2021/10/10 08:58:25;;;;;;;;;55.50;47.25;;;;;13.98;62.68;102411.63;6223358;22;45489;-84
2021/10/10 09:01:00;;;;;;;;;55.50;45.25;;;;;14.13;62.57;102432.06;6226161;22;45473;-83
2021/10/10 09:03:26;;;;;;;;;54.75;44.75;;;;;14.17;62.26;102415.31;6222705;22;45378;-84
2021/10/10 09:05:54;;;;;;;;;58.25;46.50;;;;;14.26;62.45;102417.16;6223834;22;45360;-83
2021/10/10 09:08:21;;;;;;;;;50.25;41.75;;;;;14.21;62.03;102406.50;6221237;22;45440;-83
2021/10/10 09:10:58;;;;;;;;;55.25;44.25;;;;;14.39;62.08;102413.72;6220677;22;46850;-84
2021/10/10 09:13:31;;;;;;;;;57.00;43.25;;;;;14.40;62.04;102399.59;6215997;22;45150;-83
2021/10/10 09:15:57;;;;;;;;;57.50;47.00;;;;;14.49;62.04;102402.31;6214422;22;45151;-84
2021/10/10 09:18:41;;;;;;;;;54.00;44.75;;;;;14.61;61.84;102398.88;6214117;22;45122;-84
2021/10/10 09:21:20;;;;;;;;;56.25;46.25;;;;;14.82;61.12;102421.09;6216089;22;45508;-83
2021/10/10 09:23:51;;;;;;;;;58.00;45.25;;;;;14.73;61.25;102411.34;6214432;22;45150;-84
2021/10/10 09:26:17;;;;;;;;;57.50;46.50;;;;;14.81;61.39;102414.00;6214427;22;45258;-84
2021/10/10 09:28:44;;;;;;;;;54.50;43.75;;;;;15.03;61.27;102438.91;6214406;22;45349;-84
2021/10/10 09:31:10;;;;;;;;;50.75;40.75;;;;;15.08;60.66;102435.41;6214202;22;47654;-84
2021/10/10 09:33:51;;;;;;;;;55.00;42.75;;;;;15.22;60.52;102444.28;6214245;22;45853;-84
2021/10/10 09:36:21;;;;;;;;;52.75;42.25;;;;;15.26;60.55;102446.97;6214498;22;45131;-83
2021/10/10 09:39:12;;;;;;;;;56.00;45.75;;;;;15.30;60.42;102448.75;6216368;22;45308;-84
2021/10/10 09:41:49;;;;;;;;;58.25;45.75;;;;;15.33;60.36;102439.03;6213427;22;45812;-83
2021/10/10 09:44:21;;;;;;;;;54.00;43.50;;;;;15.31;60.32;102424.84;6214100;22;45182;-84
2021/10/10 09:46:49;;;;;;;;;48.75;41.50;;;;;15.47;60.25;102420.50;6214132;22;45243;-83
2021/10/10 09:49:28;;;;;;;;;56.50;43.50;;;;;15.51;59.80;102402.81;6214073;22;45562;-83
2021/10/10 09:51:55;;;;;;;;;53.50;42.50;;;;;15.66;59.69;102425.00;6216404;22;45370;-83
2021/10/10 09:54:21;;;;;;;;;57.00;47.00;;;;;15.75;59.77;102434.78;6215749;22;45215;-83
2021/10/10 09:57:06;;;;;;;;;55.00;43.50;;;;;15.86;59.42;102434.78;6215076;22;45331;-84
2021/10/10 09:59:32;;;;;;;;;53.25;42.75;;;;;15.97;59.38;102430.38;6215466;22;45438;-84
2021/10/10 10:01:58;;;;;;;;;56.50;43.50;;;;;15.97;59.14;102409.13;6215002;22;46110;-83
2021/10/10 10:04:24;;;;;;;;;51.00;42.25;;;;;16.17;58.94;102419.78;6217563;22;45648;-83
2021/10/10 10:06:50;;;;;;;;;52.75;42.50;;;;;16.30;58.32;102415.31;6220353;22;45149;-84
2021/10/10 10:09:16;;;;;;;;;53.00;43.50;;;;;16.41;58.15;102421.53;6217605;22;45438;-83
2021/10/10 10:11:44;;;;;;;;;54.25;42.25;;;;;16.57;58.08;102430.34;6217077;22;45649;-83
2021/10/10 10:14:13;;;;;;;;;46.00;36.50;;;;;16.65;57.80;102420.59;6217365;22;45303;-83
2021/10/10 10:16:44;;;;;;;;;48.75;39.50;;;;;16.74;57.72;102415.25;6217971;22;45230;-83
2021/10/10 10:19:11;;;;;;;;;48.50;39.25;;;;;16.92;57.65;102426.75;6216370;22;45307;-83
2021/10/10 10:21:38;;;;;;;;;45.00;37.50;;;;;17.02;57.09;102422.28;6215131;22;46412;-83
2021/10/10 10:24:09;;;;;;;;;54.00;43.00;;;;;17.18;56.98;102424.00;6216948;22;45306;-83
2021/10/10 10:26:35;;;;;;;;;49.75;41.00;;;;;17.24;56.31;102413.34;6214891;22;45353;-83
2021/10/10 10:29:04;;;;;;;;;47.25;37.25;;;;;17.30;55.60;102405.34;6217220;22;45234;-83
2021/10/10 10:31:31;;;;;;;;;47.25;39.25;;;;;17.43;55.63;102414.16;6217401;22;47320;-83
2021/10/10 10:34:26;;;;;;;;;47.50;39.00;;;;;17.68;55.57;102422.88;6214805;22;45363;-83
2021/10/10 10:36:53;;;;;;;;;37.00;34.00;;;;;17.84;54.60;102423.69;6215301;22;45418;-83
2021/10/10 10:39:34;;;;;;;;;41.00;35.00;;;;;17.91;54.06;102433.41;6215175;22;45362;-83
2021/10/10 10:42:00;;;;;;;;;30.25;27.25;;;;;17.83;53.08;102425.47;6216887;22;45375;-83
2021/10/10 10:44:35;;;;;;;;;25.25;24.25;;;;;17.95;52.97;102437.81;6214919;22;45619;-83
2021/10/10 10:47:05;;;;;;;;;36.50;31.25;;;;;17.95;52.06;102427.16;6215468;22;45456;-83
2021/10/10 10:49:57;;;;;;;;;36.75;32.00;;;;;18.06;52.12;102433.28;6215263;22;45360;-83
2021/10/10 10:52:24;;;;;;;;;29.50;26.25;;;;;18.20;51.94;102429.63;6216740;22;46512;-83
2021/10/10 10:54:55;;;;;;;;;34.25;31.25;;;;;18.20;51.66;102408.28;6214975;22;45459;-83
2021/10/10 10:57:27;;;;;;;;;32.50;28.25;;;;;18.35;51.20;102417.94;6215061;22;45284;-83
2021/10/10 11:00:03;;;;;;;;;31.75;26.75;;;;;18.45;50.66;102420.50;6215798;22;45256;-84
2021/10/10 11:02:47;;;;;;;;;33.75;29.25;;;;;18.60;50.36;102432.78;6216441;22;46043;-83
2021/10/10 11:05:27;;;;;;;;;29.25;27.75;;;;;18.66;50.05;102408.75;6215145;22;45162;-83
2021/10/10 11:07:52;;;;;;;;;29.25;26.00;;;;;18.89;50.33;102426.31;6214924;22;45301;-84
2021/10/10 11:10:58;;;;;;;;;32.00;27.25;;;;;19.14;50.01;102430.47;6217053;22;45251;-83
2021/10/10 11:13:25;;;;;;;;;23.00;23.00;;;;;19.23;48.14;102416.09;6213517;22;45354;-83
2021/10/10 11:15:53;;;;;;;;;25.75;22.25;;;;;19.38;48.10;102415.03;6217006;22;45423;-83